sensor_id;sensor_type;location;lat;lon;timestamp;temperature;humidity
69715;HTU21D;56981;53.532;49.398;2023-03-01T00:01:51;-3.10;87.85
69715;HTU21D;56981;53.532;49.398;2023-03-01T00:04:17;-3.07;87.90
69715;HTU21D;56981;53.532;49.398;2023-03-01T00:06:43;-3.05;87.88
69715;HTU21D;56981;53.532;49.398;2023-03-01T00:09:13;-3.00;88.03
69715;HTU21D;56981;53.532;49.398;2023-03-01T00:11:39;-3.03;87.97
69715;HTU21D;56981;53.532;49.398;2023-03-01T00:14:05;-3.07;88.54
69715;HTU21D;56981;53.532;49.398;2023-03-01T00:16:35;-3.06;88.26
69715;HTU21D;56981;53.532;49.398;2023-03-01T00:19:02;-3.04;88.09
69715;HTU21D;56981;53.532;49.398;2023-03-01T00:21:28;-3.02;87.91
69715;HTU21D;56981;53.532;49.398;2023-03-01T00:23:55;-3.05;88.12
69715;HTU21D;56981;53.532;49.398;2023-03-01T00:26:22;-3.03;88.07
69715;HTU21D;56981;53.532;49.398;2023-03-01T00:28:48;-3.04;87.99
69715;HTU21D;56981;53.532;49.398;2023-03-01T00:31:18;-3.02;87.69
69715;HTU21D;56981;53.532;49.398;2023-03-01T00:33:45;-3.08;88.10
69715;HTU21D;56981;53.532;49.398;2023-03-01T00:36:13;-3.12;88.54
69715;HTU21D;56981;53.532;49.398;2023-03-01T00:38:42;-3.09;88.36
69715;HTU21D;56981;53.532;49.398;2023-03-01T00:41:11;-3.05;88.40
69715;HTU21D;56981;53.532;49.398;2023-03-01T00:43:40;-3.02;87.76
69715;HTU21D;56981;53.532;49.398;2023-03-01T00:46:09;-3.04;88.03
69715;HTU21D;56981;53.532;49.398;2023-03-01T00:48:36;-3.02;87.96
69715;HTU21D;56981;53.532;49.398;2023-03-01T00:53:36;-3.02;88.27
69715;HTU21D;56981;53.532;49.398;2023-03-01T00:56:03;-3.03;88.47
69715;HTU21D;56981;53.532;49.398;2023-03-01T00:58:30;-2.98;88.49
69715;HTU21D;56981;53.532;49.398;2023-03-01T01:00:56;-3.04;88.43
69715;HTU21D;56981;53.532;49.398;2023-03-01T01:03:23;-3.04;88.40
69715;HTU21D;56981;53.532;49.398;2023-03-01T01:05:51;-3.02;88.49
69715;HTU21D;56981;53.532;49.398;2023-03-01T01:08:18;-3.03;88.43
69715;HTU21D;56981;53.532;49.398;2023-03-01T01:10:45;-3.03;88.49
69715;HTU21D;56981;53.532;49.398;2023-03-01T01:13:12;-2.97;88.71
69715;HTU21D;56981;53.532;49.398;2023-03-01T01:15:39;-2.95;88.37
69715;HTU21D;56981;53.532;49.398;2023-03-01T01:18:05;-2.95;88.30
69715;HTU21D;56981;53.532;49.398;2023-03-01T01:20:32;-2.94;88.40
69715;HTU21D;56981;53.532;49.398;2023-03-01T01:22:58;-2.94;88.48
69715;HTU21D;56981;53.532;49.398;2023-03-01T01:25:24;-2.95;88.62
69715;HTU21D;56981;53.532;49.398;2023-03-01T01:27:53;-2.96;88.65
69715;HTU21D;56981;53.532;49.398;2023-03-01T01:30:19;-2.97;88.86
69715;HTU21D;56981;53.532;49.398;2023-03-01T01:32:45;-2.94;88.39
69715;HTU21D;56981;53.532;49.398;2023-03-01T01:35:11;-2.96;88.41
69715;HTU21D;56981;53.532;49.398;2023-03-01T01:37:37;-2.97;88.77
69715;HTU21D;56981;53.532;49.398;2023-03-01T01:40:03;-2.97;88.88
69715;HTU21D;56981;53.532;49.398;2023-03-01T01:42:29;-2.96;88.78
69715;HTU21D;56981;53.532;49.398;2023-03-01T01:45:31;-2.93;88.90
69715;HTU21D;56981;53.532;49.398;2023-03-01T01:48:03;-2.94;88.79
69715;HTU21D;56981;53.532;49.398;2023-03-01T01:50:30;-2.92;88.86
69715;HTU21D;56981;53.532;49.398;2023-03-01T01:53:08;-2.98;88.82
69715;HTU21D;56981;53.532;49.398;2023-03-01T01:55:37;-2.95;89.29
69715;HTU21D;56981;53.532;49.398;2023-03-01T01:58:07;-2.92;88.82
69715;HTU21D;56981;53.532;49.398;2023-03-01T02:00:34;-2.92;88.59
69715;HTU21D;56981;53.532;49.398;2023-03-01T02:03:04;-2.90;88.37
69715;HTU21D;56981;53.532;49.398;2023-03-01T02:05:49;-2.92;88.28
69715;HTU21D;56981;53.532;49.398;2023-03-01T02:08:19;-2.89;88.30
69715;HTU21D;56981;53.532;49.398;2023-03-01T02:10:46;-2.89;88.44
69715;HTU21D;56981;53.532;49.398;2023-03-01T02:13:13;-2.90;88.21
69715;HTU21D;56981;53.532;49.398;2023-03-01T02:15:40;-2.87;88.74
69715;HTU21D;56981;53.532;49.398;2023-03-01T02:18:08;-2.88;88.41
69715;HTU21D;56981;53.532;49.398;2023-03-01T02:21:05;-2.86;88.04
69715;HTU21D;56981;53.532;49.398;2023-03-01T02:23:28;-2.87;88.30
69715;HTU21D;56981;53.532;49.398;2023-03-01T02:26:07;-2.88;88.22
69715;HTU21D;56981;53.532;49.398;2023-03-01T02:28:38;-2.93;88.46
69715;HTU21D;56981;53.532;49.398;2023-03-01T02:31:07;-2.89;88.59
69715;HTU21D;56981;53.532;49.398;2023-03-01T02:33:52;-2.84;88.24
69715;HTU21D;56981;53.532;49.398;2023-03-01T02:36:23;-2.86;88.17
69715;HTU21D;56981;53.532;49.398;2023-03-01T02:38:52;-2.86;88.23
69715;HTU21D;56981;53.532;49.398;2023-03-01T02:41:20;-2.84;88.07
69715;HTU21D;56981;53.532;49.398;2023-03-01T02:43:46;-2.82;88.09
69715;HTU21D;56981;53.532;49.398;2023-03-01T02:46:19;-2.77;88.08
69715;HTU21D;56981;53.532;49.398;2023-03-01T02:48:47;-2.75;88.09
69715;HTU21D;56981;53.532;49.398;2023-03-01T02:54:16;-2.68;87.88
69715;HTU21D;56981;53.532;49.398;2023-03-01T02:56:44;-2.67;87.97
69715;HTU21D;56981;53.532;49.398;2023-03-01T02:59:15;-2.66;88.12
69715;HTU21D;56981;53.532;49.398;2023-03-01T03:01:42;-2.63;87.99
69715;HTU21D;56981;53.532;49.398;2023-03-01T03:04:11;-2.65;88.34
69715;HTU21D;56981;53.532;49.398;2023-03-01T03:06:45;-2.65;88.21
69715;HTU21D;56981;53.532;49.398;2023-03-01T03:09:12;-2.71;88.64
69715;HTU21D;56981;53.532;49.398;2023-03-01T03:11:38;-2.77;88.64
69715;HTU21D;56981;53.532;49.398;2023-03-01T03:14:10;-2.78;89.10
69715;HTU21D;56981;53.532;49.398;2023-03-01T03:16:44;-2.77;88.94
69715;HTU21D;56981;53.532;49.398;2023-03-01T03:19:10;-2.78;88.89
69715;HTU21D;56981;53.532;49.398;2023-03-01T03:21:36;-2.75;89.02
69715;HTU21D;56981;53.532;49.398;2023-03-01T03:24:03;-2.78;88.87
69715;HTU21D;56981;53.532;49.398;2023-03-01T03:26:29;-2.77;89.26
69715;HTU21D;56981;53.532;49.398;2023-03-01T03:28:56;-2.74;88.94
69715;HTU21D;56981;53.532;49.398;2023-03-01T03:31:22;-2.73;89.34
69715;HTU21D;56981;53.532;49.398;2023-03-01T03:33:49;-2.68;88.89
69715;HTU21D;56981;53.532;49.398;2023-03-01T03:36:21;-2.64;88.79
69715;HTU21D;56981;53.532;49.398;2023-03-01T03:38:47;-2.69;89.05
69715;HTU21D;56981;53.532;49.398;2023-03-01T03:41:14;-2.69;88.78
69715;HTU21D;56981;53.532;49.398;2023-03-01T03:43:41;-2.67;88.95
69715;HTU21D;56981;53.532;49.398;2023-03-01T03:46:10;-2.64;88.56
69715;HTU21D;56981;53.532;49.398;2023-03-01T03:48:39;-2.59;88.23
69715;HTU21D;56981;53.532;49.398;2023-03-01T03:51:05;-2.57;88.25
69715;HTU21D;56981;53.532;49.398;2023-03-01T03:53:32;-2.58;88.29
69715;HTU21D;56981;53.532;49.398;2023-03-01T03:55:59;-2.57;88.21
69715;HTU21D;56981;53.532;49.398;2023-03-01T03:58:25;-2.48;88.08
69715;HTU21D;56981;53.532;49.398;2023-03-01T04:00:54;-2.45;87.95
69715;HTU21D;56981;53.532;49.398;2023-03-01T04:03:23;-2.42;87.55
69715;HTU21D;56981;53.532;49.398;2023-03-01T04:05:50;-2.44;87.49
69715;HTU21D;56981;53.532;49.398;2023-03-01T04:08:17;-2.42;87.38
69715;HTU21D;56981;53.532;49.398;2023-03-01T04:10:47;-2.38;87.14
69715;HTU21D;56981;53.532;49.398;2023-03-01T04:13:16;-2.32;86.98
69715;HTU21D;56981;53.532;49.398;2023-03-01T04:15:45;-2.23;86.63
69715;HTU21D;56981;53.532;49.398;2023-03-01T04:18:15;-2.18;86.18
69715;HTU21D;56981;53.532;49.398;2023-03-01T04:20:42;-2.14;86.14
69715;HTU21D;56981;53.532;49.398;2023-03-01T04:23:16;-2.05;85.70
69715;HTU21D;56981;53.532;49.398;2023-03-01T04:25:46;-2.01;85.32
69715;HTU21D;56981;53.532;49.398;2023-03-01T04:28:15;-1.91;84.79
69715;HTU21D;56981;53.532;49.398;2023-03-01T04:30:41;-1.92;84.54
69715;HTU21D;56981;53.532;49.398;2023-03-01T04:33:09;-1.83;83.96
69715;HTU21D;56981;53.532;49.398;2023-03-01T04:35:36;-1.83;84.15
69715;HTU21D;56981;53.532;49.398;2023-03-01T04:38:03;-1.79;83.61
69715;HTU21D;56981;53.532;49.398;2023-03-01T04:40:29;-1.77;82.73
69715;HTU21D;56981;53.532;49.398;2023-03-01T04:42:55;-1.63;82.75
69715;HTU21D;56981;53.532;49.398;2023-03-01T04:45:22;-1.49;82.30
69715;HTU21D;56981;53.532;49.398;2023-03-01T04:47:47;-1.35;81.49
69715;HTU21D;56981;53.532;49.398;2023-03-01T04:50:16;-1.11;80.36
69715;HTU21D;56981;53.532;49.398;2023-03-01T04:52:46;-0.82;79.17
69715;HTU21D;56981;53.532;49.398;2023-03-01T04:55:13;-0.62;78.12
69715;HTU21D;56981;53.532;49.398;2023-03-01T04:57:39;-0.29;77.05
69715;HTU21D;56981;53.532;49.398;2023-03-01T05:00:08;0.28;74.69
69715;HTU21D;56981;53.532;49.398;2023-03-01T05:02:54;0.40;73.67
69715;HTU21D;56981;53.532;49.398;2023-03-01T05:07:52;-0.01;74.53
69715;HTU21D;56981;53.532;49.398;2023-03-01T05:10:18;-0.16;75.05
69715;HTU21D;56981;53.532;49.398;2023-03-01T05:12:44;-0.14;75.13
69715;HTU21D;56981;53.532;49.398;2023-03-01T05:15:12;-0.06;75.18
69715;HTU21D;56981;53.532;49.398;2023-03-01T05:17:38;-0.03;74.46
69715;HTU21D;56981;53.532;49.398;2023-03-01T05:20:05;-0.06;73.81
69715;HTU21D;56981;53.532;49.398;2023-03-01T05:22:34;0.05;73.92
69715;HTU21D;56981;53.532;49.398;2023-03-01T05:25:01;0.19;73.55
69715;HTU21D;56981;53.532;49.398;2023-03-01T05:27:28;0.53;72.28
69715;HTU21D;56981;53.532;49.398;2023-03-01T05:29:55;0.67;71.55
69715;HTU21D;56981;53.532;49.398;2023-03-01T05:32:21;0.72;70.69
69715;HTU21D;56981;53.532;49.398;2023-03-01T05:34:47;0.74;71.33
69715;HTU21D;56981;53.532;49.398;2023-03-01T05:37:13;0.84;70.82
69715;HTU21D;56981;53.532;49.398;2023-03-01T05:39:40;0.80;70.39
69715;HTU21D;56981;53.532;49.398;2023-03-01T05:42:10;0.82;70.04
69715;HTU21D;56981;53.532;49.398;2023-03-01T05:44:36;0.91;70.31
69715;HTU21D;56981;53.532;49.398;2023-03-01T05:47:03;1.24;69.76
69715;HTU21D;56981;53.532;49.398;2023-03-01T05:49:29;1.28;69.12
69715;HTU21D;56981;53.532;49.398;2023-03-01T05:51:57;1.31;67.82
69715;HTU21D;56981;53.532;49.398;2023-03-01T05:54:23;1.07;69.49
69715;HTU21D;56981;53.532;49.398;2023-03-01T05:56:49;1.04;68.39
69715;HTU21D;56981;53.532;49.398;2023-03-01T05:59:15;1.54;67.35
69715;HTU21D;56981;53.532;49.398;2023-03-01T06:01:42;1.96;65.62
69715;HTU21D;56981;53.532;49.398;2023-03-01T06:04:09;2.10;64.97
69715;HTU21D;56981;53.532;49.398;2023-03-01T06:06:38;2.38;64.05
69715;HTU21D;56981;53.532;49.398;2023-03-01T06:09:06;2.29;63.98
69715;HTU21D;56981;53.532;49.398;2023-03-01T06:11:34;2.30;64.00
69715;HTU21D;56981;53.532;49.398;2023-03-01T06:14:01;2.31;63.56
69715;HTU21D;56981;53.532;49.398;2023-03-01T06:16:27;2.16;64.21
69715;HTU21D;56981;53.532;49.398;2023-03-01T06:18:53;2.03;65.29
69715;HTU21D;56981;53.532;49.398;2023-03-01T06:21:19;1.96;65.44
69715;HTU21D;56981;53.532;49.398;2023-03-01T06:23:45;1.98;65.48
69715;HTU21D;56981;53.532;49.398;2023-03-01T06:26:11;1.80;65.95
69715;HTU21D;56981;53.532;49.398;2023-03-01T06:28:38;1.92;64.98
69715;HTU21D;56981;53.532;49.398;2023-03-01T06:31:04;2.09;64.23
69715;HTU21D;56981;53.532;49.398;2023-03-01T06:33:34;2.32;62.34
69715;HTU21D;56981;53.532;49.398;2023-03-01T06:36:00;2.38;62.50
69715;HTU21D;56981;53.532;49.398;2023-03-01T06:38:26;2.03;63.44
69715;HTU21D;56981;53.532;49.398;2023-03-01T06:40:53;1.85;64.94
69715;HTU21D;56981;53.532;49.398;2023-03-01T06:43:20;1.51;65.72
69715;HTU21D;56981;53.532;49.398;2023-03-01T06:45:47;1.53;66.85
69715;HTU21D;56981;53.532;49.398;2023-03-01T06:48:13;1.13;67.83
69715;HTU21D;56981;53.532;49.398;2023-03-01T06:50:39;0.58;69.95
69715;HTU21D;56981;53.532;49.398;2023-03-01T06:53:05;0.24;71.24
69715;HTU21D;56981;53.532;49.398;2023-03-01T06:55:31;-0.09;71.49
69715;HTU21D;56981;53.532;49.398;2023-03-01T06:57:59;0.13;71.48
69715;HTU21D;56981;53.532;49.398;2023-03-01T07:00:26;0.37;70.39
69715;HTU21D;56981;53.532;49.398;2023-03-01T07:02:53;0.60;68.36
69715;HTU21D;56981;53.532;49.398;2023-03-01T07:05:19;0.95;65.72
69715;HTU21D;56981;53.532;49.398;2023-03-01T07:07:45;1.14;63.82
69715;HTU21D;56981;53.532;49.398;2023-03-01T07:10:12;1.57;61.31
69715;HTU21D;56981;53.532;49.398;2023-03-01T07:12:38;1.84;61.32
69715;HTU21D;56981;53.532;49.398;2023-03-01T07:15:05;1.91;61.19
69715;HTU21D;56981;53.532;49.398;2023-03-01T07:17:31;2.17;61.19
69715;HTU21D;56981;53.532;49.398;2023-03-01T07:19:57;2.49;60.45
69715;HTU21D;56981;53.532;49.398;2023-03-01T07:22:23;2.41;60.25
69715;HTU21D;56981;53.532;49.398;2023-03-01T07:24:49;2.62;59.71
69715;HTU21D;56981;53.532;49.398;2023-03-01T07:27:15;2.79;58.93
69715;HTU21D;56981;53.532;49.398;2023-03-01T07:29:41;3.00;58.68
69715;HTU21D;56981;53.532;49.398;2023-03-01T07:32:07;2.99;58.13
69715;HTU21D;56981;53.532;49.398;2023-03-01T07:34:34;2.83;58.45
69715;HTU21D;56981;53.532;49.398;2023-03-01T07:37:00;2.45;58.18
69715;HTU21D;56981;53.532;49.398;2023-03-01T07:39:26;2.00;59.92
69715;HTU21D;56981;53.532;49.398;2023-03-01T07:41:52;2.05;59.59
69715;HTU21D;56981;53.532;49.398;2023-03-01T07:44:18;2.28;59.51
69715;HTU21D;56981;53.532;49.398;2023-03-01T07:46:44;2.15;59.80
69715;HTU21D;56981;53.532;49.398;2023-03-01T07:49:10;2.32;59.00
69715;HTU21D;56981;53.532;49.398;2023-03-01T07:51:36;2.25;57.92
69715;HTU21D;56981;53.532;49.398;2023-03-01T07:54:02;2.51;57.22
69715;HTU21D;56981;53.532;49.398;2023-03-01T07:56:29;2.93;55.00
69715;HTU21D;56981;53.532;49.398;2023-03-01T07:58:55;2.96;53.29
69715;HTU21D;56981;53.532;49.398;2023-03-01T08:01:21;2.85;54.72
69715;HTU21D;56981;53.532;49.398;2023-03-01T08:03:48;2.93;53.13
69715;HTU21D;56981;53.532;49.398;2023-03-01T08:06:16;2.25;54.58
69715;HTU21D;56981;53.532;49.398;2023-03-01T08:08:42;2.26;55.43
69715;HTU21D;56981;53.532;49.398;2023-03-01T08:11:11;2.22;54.39
69715;HTU21D;56981;53.532;49.398;2023-03-01T08:13:41;2.20;54.61
69715;HTU21D;56981;53.532;49.398;2023-03-01T08:16:11;1.40;56.29
69715;HTU21D;56981;53.532;49.398;2023-03-01T08:18:38;1.02;57.66
69715;HTU21D;56981;53.532;49.398;2023-03-01T08:21:09;0.84;59.51
69715;HTU21D;56981;53.532;49.398;2023-03-01T08:23:36;0.83;59.90
69715;HTU21D;56981;53.532;49.398;2023-03-01T08:26:07;0.78;59.80
69715;HTU21D;56981;53.532;49.398;2023-03-01T08:28:34;0.80;59.35
69715;HTU21D;56981;53.532;49.398;2023-03-01T08:31:00;1.01;58.84
69715;HTU21D;56981;53.532;49.398;2023-03-01T08:33:35;1.02;58.85
69715;HTU21D;56981;53.532;49.398;2023-03-01T08:36:05;1.23;56.16
69715;HTU21D;56981;53.532;49.398;2023-03-01T08:38:33;1.29;56.24
69715;HTU21D;56981;53.532;49.398;2023-03-01T08:41:01;1.04;57.67
69715;HTU21D;56981;53.532;49.398;2023-03-01T08:43:27;0.80;58.03
69715;HTU21D;56981;53.532;49.398;2023-03-01T08:45:53;0.79;58.55
69715;HTU21D;56981;53.532;49.398;2023-03-01T08:48:19;1.81;55.51
69715;HTU21D;56981;53.532;49.398;2023-03-01T08:50:45;2.08;54.10
69715;HTU21D;56981;53.532;49.398;2023-03-01T08:53:11;1.47;57.92
69715;HTU21D;56981;53.532;49.398;2023-03-01T08:55:37;1.09;58.33
69715;HTU21D;56981;53.532;49.398;2023-03-01T08:58:03;1.32;60.16
69715;HTU21D;56981;53.532;49.398;2023-03-01T09:00:29;1.69;57.51
69715;HTU21D;56981;53.532;49.398;2023-03-01T09:02:55;1.80;57.37
69715;HTU21D;56981;53.532;49.398;2023-03-01T09:05:21;1.95;56.90
69715;HTU21D;56981;53.532;49.398;2023-03-01T09:07:47;1.84;56.96
69715;HTU21D;56981;53.532;49.398;2023-03-01T09:10:13;1.23;59.29
69715;HTU21D;56981;53.532;49.398;2023-03-01T09:12:39;0.87;59.21
69715;HTU21D;56981;53.532;49.398;2023-03-01T09:15:06;0.53;59.83
69715;HTU21D;56981;53.532;49.398;2023-03-01T09:17:32;0.75;60.73
69715;HTU21D;56981;53.532;49.398;2023-03-01T09:19:58;1.11;59.03
69715;HTU21D;56981;53.532;49.398;2023-03-01T09:22:25;1.45;57.58
69715;HTU21D;56981;53.532;49.398;2023-03-01T09:24:51;1.36;57.44
69715;HTU21D;56981;53.532;49.398;2023-03-01T09:27:17;1.22;60.38
69715;HTU21D;56981;53.532;49.398;2023-03-01T09:29:44;1.07;60.16
69715;HTU21D;56981;53.532;49.398;2023-03-01T09:32:10;0.54;62.37
69715;HTU21D;56981;53.532;49.398;2023-03-01T09:34:37;0.05;63.23
69715;HTU21D;56981;53.532;49.398;2023-03-01T09:37:22;-0.23;62.47
69715;HTU21D;56981;53.532;49.398;2023-03-01T09:39:49;-0.02;60.87
69715;HTU21D;56981;53.532;49.398;2023-03-01T09:42:15;0.43;58.51
69715;HTU21D;56981;53.532;49.398;2023-03-01T09:44:51;0.17;57.42
69715;HTU21D;56981;53.532;49.398;2023-03-01T09:47:25;0.54;58.13
69715;HTU21D;56981;53.532;49.398;2023-03-01T09:52:46;0.74;55.97
69715;HTU21D;56981;53.532;49.398;2023-03-01T09:55:40;0.65;54.44
69715;HTU21D;56981;53.532;49.398;2023-03-01T10:01:31;0.32;55.65
69715;HTU21D;56981;53.532;49.398;2023-03-01T10:06:30;0.02;56.58
69715;HTU21D;56981;53.532;49.398;2023-03-01T10:08:59;-0.17;57.22
69715;HTU21D;56981;53.532;49.398;2023-03-01T10:11:35;0.01;57.77
69715;HTU21D;56981;53.532;49.398;2023-03-01T10:16:58;0.46;59.17
69715;HTU21D;56981;53.532;49.398;2023-03-01T10:19:40;0.71;59.46
69715;HTU21D;56981;53.532;49.398;2023-03-01T10:22:29;0.71;60.10
69715;HTU21D;56981;53.532;49.398;2023-03-01T10:24:59;1.03;60.77
69715;HTU21D;56981;53.532;49.398;2023-03-01T10:27:34;1.11;61.02
69715;HTU21D;56981;53.532;49.398;2023-03-01T10:30:21;0.93;62.67
69715;HTU21D;56981;53.532;49.398;2023-03-01T10:32:51;0.45;61.30
69715;HTU21D;56981;53.532;49.398;2023-03-01T10:35:26;0.33;60.20
69715;HTU21D;56981;53.532;49.398;2023-03-01T10:38:09;-0.17;60.80
69715;HTU21D;56981;53.532;49.398;2023-03-01T10:40:50;-0.28;62.63
69715;HTU21D;56981;53.532;49.398;2023-03-01T10:43:17;-0.56;61.02
69715;HTU21D;56981;53.532;49.398;2023-03-01T10:45:44;-0.77;61.51
69715;HTU21D;56981;53.532;49.398;2023-03-01T10:48:19;-0.74;60.28
69715;HTU21D;56981;53.532;49.398;2023-03-01T10:53:28;-0.47;57.26
69715;HTU21D;56981;53.532;49.398;2023-03-01T10:56:08;-0.41;58.24
69715;HTU21D;56981;53.532;49.398;2023-03-01T10:58:37;-0.53;57.63
69715;HTU21D;56981;53.532;49.398;2023-03-01T11:03:41;-0.80;59.20
69715;HTU21D;56981;53.532;49.398;2023-03-01T11:08:45;-0.75;58.18
69715;HTU21D;56981;53.532;49.398;2023-03-01T11:14:06;-0.83;58.74
69715;HTU21D;56981;53.532;49.398;2023-03-01T11:16:37;-0.74;57.44
69715;HTU21D;56981;53.532;49.398;2023-03-01T11:19:24;-0.47;57.84
69715;HTU21D;56981;53.532;49.398;2023-03-01T11:21:52;-0.25;56.06
69715;HTU21D;56981;53.532;49.398;2023-03-01T11:24:19;-0.00;55.80
69715;HTU21D;56981;53.532;49.398;2023-03-01T11:26:54;0.07;55.31
69715;HTU21D;56981;53.532;49.398;2023-03-01T11:29:37;0.16;54.25
69715;HTU21D;56981;53.532;49.398;2023-03-01T11:32:08;0.44;54.94
69715;HTU21D;56981;53.532;49.398;2023-03-01T11:35:32;0.34;53.84
69715;HTU21D;56981;53.532;49.398;2023-03-01T11:44:01;0.65;51.87
69715;HTU21D;56981;53.532;49.398;2023-03-01T11:46:51;0.27;53.13
69715;HTU21D;56981;53.532;49.398;2023-03-01T11:52:30;0.03;52.32
69715;HTU21D;56981;53.532;49.398;2023-03-01T11:57:59;-0.15;55.42
69715;HTU21D;56981;53.532;49.398;2023-03-01T12:26:07;-0.85;62.33
69715;HTU21D;56981;53.532;49.398;2023-03-01T12:34:38;-1.31;68.23
69715;HTU21D;56981;53.532;49.398;2023-03-01T12:50:54;-0.79;60.36
69715;HTU21D;56981;53.532;49.398;2023-03-01T12:53:26;-0.90;59.61
69715;HTU21D;56981;53.532;49.398;2023-03-01T12:55:56;-0.97;60.02
69715;HTU21D;56981;53.532;49.398;2023-03-01T13:04:18;-1.59;59.71
69715;HTU21D;56981;53.532;49.398;2023-03-01T13:12:50;-1.95;59.35
69715;HTU21D;56981;53.532;49.398;2023-03-01T13:15:26;-2.03;60.35
69715;HTU21D;56981;53.532;49.398;2023-03-01T13:17:58;-1.99;61.25
69715;HTU21D;56981;53.532;49.398;2023-03-01T13:20:47;-2.05;59.80
69715;HTU21D;56981;53.532;49.398;2023-03-01T13:33:58;-2.47;60.09
69715;HTU21D;56981;53.532;49.398;2023-03-01T13:38:57;-2.56;60.25
69715;HTU21D;56981;53.532;49.398;2023-03-01T13:46:57;-2.61;60.37
69715;HTU21D;56981;53.532;49.398;2023-03-01T13:49:28;-2.59;58.90
69715;HTU21D;56981;53.532;49.398;2023-03-01T13:51:55;-2.56;60.70
69715;HTU21D;56981;53.532;49.398;2023-03-01T13:54:30;-2.57;59.70
69715;HTU21D;56981;53.532;49.398;2023-03-01T13:56:58;-2.62;59.61
69715;HTU21D;56981;53.532;49.398;2023-03-01T13:59:25;-2.66;57.96
69715;HTU21D;56981;53.532;49.398;2023-03-01T14:02:00;-2.67;59.37
69715;HTU21D;56981;53.532;49.398;2023-03-01T14:04:31;-2.71;58.70
69715;HTU21D;56981;53.532;49.398;2023-03-01T14:07:13;-2.71;58.69
69715;HTU21D;56981;53.532;49.398;2023-03-01T14:09:45;-2.68;58.96
69715;HTU21D;56981;53.532;49.398;2023-03-01T14:15:15;-2.63;60.19
69715;HTU21D;56981;53.532;49.398;2023-03-01T14:18:18;-2.59;60.70
69715;HTU21D;56981;53.532;49.398;2023-03-01T14:20:47;-2.56;61.34
69715;HTU21D;56981;53.532;49.398;2023-03-01T14:23:22;-2.54;60.55
69715;HTU21D;56981;53.532;49.398;2023-03-01T14:25:54;-2.59;60.64
69715;HTU21D;56981;53.532;49.398;2023-03-01T14:28:26;-2.62;60.88
69715;HTU21D;56981;53.532;49.398;2023-03-01T14:30:58;-2.67;60.95
69715;HTU21D;56981;53.532;49.398;2023-03-01T14:33:30;-2.77;61.92
69715;HTU21D;56981;53.532;49.398;2023-03-01T14:36:07;-2.80;62.21
69715;HTU21D;56981;53.532;49.398;2023-03-01T14:38:38;-2.91;62.49
69715;HTU21D;56981;53.532;49.398;2023-03-01T14:43:50;-3.01;64.73
69715;HTU21D;56981;53.532;49.398;2023-03-01T14:46:21;-3.04;63.80
69715;HTU21D;56981;53.532;49.398;2023-03-01T14:48:51;-3.08;63.75
69715;HTU21D;56981;53.532;49.398;2023-03-01T14:51:18;-3.08;64.85
69715;HTU21D;56981;53.532;49.398;2023-03-01T14:53:45;-3.09;63.31
69715;HTU21D;56981;53.532;49.398;2023-03-01T14:56:15;-3.01;64.27
69715;HTU21D;56981;53.532;49.398;2023-03-01T14:58:46;-2.98;62.99
69715;HTU21D;56981;53.532;49.398;2023-03-01T15:01:18;-2.97;63.36
69715;HTU21D;56981;53.532;49.398;2023-03-01T15:03:47;-2.94;64.00
69715;HTU21D;56981;53.532;49.398;2023-03-01T15:06:19;-2.92;64.30
69715;HTU21D;56981;53.532;49.398;2023-03-01T15:08:49;-2.92;62.51
69715;HTU21D;56981;53.532;49.398;2023-03-01T15:11:18;-2.92;63.30
69715;HTU21D;56981;53.532;49.398;2023-03-01T15:13:48;-2.96;63.50
69715;HTU21D;56981;53.532;49.398;2023-03-01T15:16:21;-3.00;63.38
69715;HTU21D;56981;53.532;49.398;2023-03-01T15:18:51;-3.16;63.76
69715;HTU21D;56981;53.532;49.398;2023-03-01T15:21:32;-3.25;64.23
69715;HTU21D;56981;53.532;49.398;2023-03-01T15:24:46;-3.36;65.70
69715;HTU21D;56981;53.532;49.398;2023-03-01T15:26:59;-3.46;67.05
69715;HTU21D;56981;53.532;49.398;2023-03-01T15:29:33;-3.60;67.74
69715;HTU21D;56981;53.532;49.398;2023-03-01T15:32:29;-3.61;68.42
69715;HTU21D;56981;53.532;49.398;2023-03-01T15:35:01;-3.65;68.75
69715;HTU21D;56981;53.532;49.398;2023-03-01T15:37:48;-3.65;69.20
69715;HTU21D;56981;53.532;49.398;2023-03-01T15:40:26;-3.65;68.94
69715;HTU21D;56981;53.532;49.398;2023-03-01T15:43:13;-3.62;70.12
69715;HTU21D;56981;53.532;49.398;2023-03-01T15:45:56;-3.55;68.18
69715;HTU21D;56981;53.532;49.398;2023-03-01T15:48:24;-3.50;69.45
69715;HTU21D;56981;53.532;49.398;2023-03-01T15:50:57;-3.50;69.82
69715;HTU21D;56981;53.532;49.398;2023-03-01T15:53:24;-3.49;70.28
69715;HTU21D;56981;53.532;49.398;2023-03-01T15:55:52;-3.45;70.80
69715;HTU21D;56981;53.532;49.398;2023-03-01T15:58:28;-3.37;71.26
69715;HTU21D;56981;53.532;49.398;2023-03-01T16:00:54;-3.33;70.65
69715;HTU21D;56981;53.532;49.398;2023-03-01T16:03:25;-3.37;71.10
69715;HTU21D;56981;53.532;49.398;2023-03-01T16:05:51;-3.37;71.23
69715;HTU21D;56981;53.532;49.398;2023-03-01T16:08:18;-3.40;71.38
69715;HTU21D;56981;53.532;49.398;2023-03-01T16:10:45;-3.40;71.98
69715;HTU21D;56981;53.532;49.398;2023-03-01T16:13:23;-3.38;71.01
69715;HTU21D;56981;53.532;49.398;2023-03-01T16:15:51;-3.38;71.29
69715;HTU21D;56981;53.532;49.398;2023-03-01T16:18:20;-3.39;70.93
69715;HTU21D;56981;53.532;49.398;2023-03-01T16:20:46;-3.43;71.31
69715;HTU21D;56981;53.532;49.398;2023-03-01T16:23:14;-3.43;71.89
69715;HTU21D;56981;53.532;49.398;2023-03-01T16:25:41;-3.46;71.77
69715;HTU21D;56981;53.532;49.398;2023-03-01T16:28:08;-3.47;72.11
69715;HTU21D;56981;53.532;49.398;2023-03-01T16:30:38;-3.47;71.70
69715;HTU21D;56981;53.532;49.398;2023-03-01T16:33:05;-3.48;72.83
69715;HTU21D;56981;53.532;49.398;2023-03-01T16:35:33;-3.43;71.76
69715;HTU21D;56981;53.532;49.398;2023-03-01T16:38:05;-3.41;71.10
69715;HTU21D;56981;53.532;49.398;2023-03-01T16:40:31;-3.39;71.09
69715;HTU21D;56981;53.532;49.398;2023-03-01T16:42:58;-3.32;71.20
69715;HTU21D;56981;53.532;49.398;2023-03-01T16:45:34;-3.34;70.60
69715;HTU21D;56981;53.532;49.398;2023-03-01T16:48:02;-3.38;69.42
69715;HTU21D;56981;53.532;49.398;2023-03-01T16:50:29;-3.36;69.52
69715;HTU21D;56981;53.532;49.398;2023-03-01T16:52:55;-3.36;69.68
69715;HTU21D;56981;53.532;49.398;2023-03-01T16:55:22;-3.37;69.71
69715;HTU21D;56981;53.532;49.398;2023-03-01T16:57:49;-3.36;69.64
69715;HTU21D;56981;53.532;49.398;2023-03-01T17:00:17;-3.41;69.87
69715;HTU21D;56981;53.532;49.398;2023-03-01T17:02:44;-3.46;69.42
69715;HTU21D;56981;53.532;49.398;2023-03-01T17:05:10;-3.48;68.62
69715;HTU21D;56981;53.532;49.398;2023-03-01T17:07:38;-3.49;68.51
69715;HTU21D;56981;53.532;49.398;2023-03-01T17:10:07;-3.48;67.97
69715;HTU21D;56981;53.532;49.398;2023-03-01T17:12:35;-3.54;67.75
69715;HTU21D;56981;53.532;49.398;2023-03-01T17:15:05;-3.53;67.58
69715;HTU21D;56981;53.532;49.398;2023-03-01T17:17:31;-3.51;68.17
69715;HTU21D;56981;53.532;49.398;2023-03-01T17:19:59;-3.51;66.44
69715;HTU21D;56981;53.532;49.398;2023-03-01T17:22:28;-3.50;67.31
69715;HTU21D;56981;53.532;49.398;2023-03-01T17:24:56;-3.52;67.00
69715;HTU21D;56981;53.532;49.398;2023-03-01T17:27:24;-3.56;66.64